createdAt,value
2019-05-29T00:01:21.972Z,97367.87
2019-05-29T00:03:51.578Z,97369.66
2019-05-29T00:06:22.184Z,97372.42
2019-05-29T00:08:51.597Z,97375.80
2019-05-29T00:11:21.959Z,97386.51
2019-05-29T00:13:52.567Z,97375.62
2019-05-29T00:16:22.954Z,97381.59
2019-05-29T00:18:58.181Z,97378.44
2019-05-29T00:21:26.328Z,97379.68
2019-05-29T00:23:57.112Z,97381.27
2019-05-29T00:26:26.932Z,97381.88
2019-05-29T00:28:55.399Z,97386.03
2019-05-29T00:31:27.633Z,97379.25
2019-05-29T00:33:57.104Z,97378.87
2019-05-29T00:36:26.576Z,97379.05
2019-05-29T00:38:56.035Z,97381.39
2019-05-29T00:41:28.094Z,97376.58
2019-05-29T00:43:56.546Z,97386.28
2019-05-29T00:46:25.996Z,97390.81
2019-05-29T00:48:56.464Z,97390.99
2019-05-29T00:51:27.083Z,97395.67
2019-05-29T00:53:57.902Z,97393.23
2019-05-29T00:56:27.791Z,97396.34
2019-05-29T00:58:56.588Z,97398.11
2019-05-29T01:01:27.360Z,97399.62
2019-05-29T01:03:56.712Z,97404.17
2019-05-29T01:06:26.072Z,97408.66
2019-05-29T01:08:55.488Z,97407.06
2019-05-29T01:11:27.294Z,97409.41
2019-05-29T01:13:57.699Z,97419.53
2019-05-29T01:16:28.461Z,97412.61
2019-05-29T01:19:00.599Z,97410.03
2019-05-29T01:21:32.677Z,97415.75
2019-05-29T01:24:03.118Z,97413.33
2019-05-29T01:26:32.588Z,97418.78
2019-05-29T01:29:03.242Z,97424.49
2019-05-29T01:31:34.315Z,97430.41
2019-05-29T01:34:04.810Z,97428.22
2019-05-29T01:36:35.221Z,97434.56
2019-05-29T01:39:07.090Z,97433.52
2019-05-29T01:41:38.951Z,97434.41
2019-05-29T01:44:08.104Z,97435.08
2019-05-29T01:46:37.503Z,97433.90
2019-05-29T01:49:10.167Z,97433.27
2019-05-29T01:51:42.029Z,97439.17
2019-05-29T01:54:12.547Z,97437.80
2019-05-29T01:56:42.436Z,97446.16
2019-05-29T01:59:12.042Z,97450.69
2019-05-29T02:01:42.509Z,97450.02
2019-05-29T02:04:13.033Z,97449.96
2019-05-29T02:06:44.897Z,97457.55
2019-05-29T02:09:17.985Z,97460.89
2019-05-29T02:11:47.416Z,97466.20
2019-05-29T02:14:18.514Z,97466.31
2019-05-29T02:16:48.941Z,97471.98
2019-05-29T02:19:19.853Z,97466.83
2019-05-29T02:21:50.454Z,97466.45
2019-05-29T02:24:21.190Z,97469.86
2019-05-29T02:26:51.507Z,97478.52
2019-05-29T02:29:20.857Z,97479.16
2019-05-29T02:31:50.756Z,97488.79
2019-05-29T02:34:22.657Z,97485.38
2019-05-29T02:36:56.719Z,97490.69
2019-05-29T02:39:29.413Z,97493.55
2019-05-29T02:42:00.436Z,97494.84
2019-05-29T02:44:30.197Z,97493.45
2019-05-29T02:47:01.221Z,97497.84
2019-05-29T02:49:30.698Z,97502.00
2019-05-29T02:52:00.608Z,97503.15
2019-05-29T02:54:32.512Z,97501.93
2019-05-29T02:57:01.892Z,97505.72
2019-05-29T02:59:32.083Z,97507.10
2019-05-29T03:02:02.896Z,97509.23
2019-05-29T03:04:33.003Z,97511.19
2019-05-29T03:07:04.245Z,97517.73
2019-05-29T03:09:34.751Z,97524.73
2019-05-29T03:12:04.263Z,97526.28
2019-05-29T03:14:35.004Z,97524.66
2019-05-29T03:17:05.395Z,97522.03
2019-05-29T03:19:35.028Z,97527.94
2019-05-29T03:22:06.978Z,97524.39
2019-05-29T03:24:36.499Z,97534.66
2019-05-29T03:27:09.458Z,97527.66
2019-05-29T03:29:38.930Z,97529.19
2019-05-29T03:32:14.012Z,97536.17
2019-05-29T03:34:47.023Z,97538.87
2019-05-29T03:37:13.173Z,97543.67
2019-05-29T03:39:43.557Z,97547.31
2019-05-29T03:42:14.502Z,97546.56
2019-05-29T03:44:45.658Z,97552.54
2019-05-29T03:47:16.255Z,97554.52
2019-05-29T03:49:46.174Z,97552.93
2019-05-29T03:52:16.367Z,97554.20
2019-05-29T03:54:46.845Z,97562.23
2019-05-29T03:57:16.455Z,97559.30
2019-05-29T03:59:45.814Z,97563.81
2019-05-29T04:02:17.773Z,97571.38
2019-05-29T04:04:50.763Z,97578.16
2019-05-29T04:07:20.270Z,97576.66
2019-05-29T04:09:49.733Z,97587.98
2019-05-29T04:12:20.519Z,97589.23
2019-05-29T04:14:49.997Z,97587.17
2019-05-29T04:17:21.328Z,97587.98
2019-05-29T04:19:50.630Z,97591.83
2019-05-29T04:22:28.329Z,97590.68
2019-05-29T04:25:00.273Z,97596.86
2019-05-29T04:27:32.146Z,97603.91
2019-05-29T04:30:04.118Z,97600.94
2019-05-29T04:32:36.608Z,97607.98
2019-05-29T04:35:07.051Z,97604.57
2019-05-29T04:37:39.687Z,97609.95
2019-05-29T04:40:12.431Z,97611.27
2019-05-29T04:42:43.251Z,97615.56
2019-05-29T04:45:14.175Z,97620.75
2019-05-29T04:47:44.890Z,97622.80
2019-05-29T04:50:15.402Z,97626.44
2019-05-29T04:52:45.812Z,97634.10
2019-05-29T04:55:15.215Z,97637.94
2019-05-29T04:57:45.577Z,97645.39
2019-05-29T05:00:16.505Z,97640.06
2019-05-29T05:02:47.222Z,97649.11
2019-05-29T05:05:19.623Z,97655.83
2019-05-29T05:07:51.015Z,97656.30
2019-05-29T05:10:37.645Z,97654.16
2019-05-29T05:13:09.020Z,97663.40
2019-05-29T05:15:40.354Z,97663.61
2019-05-29T05:18:10.751Z,97665.95
2019-05-29T05:20:41.078Z,97668.80
2019-05-29T05:23:10.354Z,97671.94
2019-05-29T05:25:41.132Z,97677.31
2019-05-29T05:28:10.649Z,97677.42
2019-05-29T05:30:40.840Z,97683.52
2019-05-29T05:33:14.754Z,97688.02
2019-05-29T05:35:42.656Z,97685.88
2019-05-29T05:38:13.208Z,97688.66
2019-05-29T05:40:43.268Z,97691.32
2019-05-29T05:43:23.519Z,97692.36
2019-05-29T05:45:45.019Z,97700.11
2019-05-29T05:48:15.443Z,97698.51
2019-05-29T05:50:45.815Z,97705.88
2019-05-29T05:53:16.398Z,97709.44
2019-05-29T05:55:46.856Z,97714.32
2019-05-29T05:58:16.248Z,97711.66
2019-05-29T06:00:46.615Z,97721.41
2019-05-29T06:03:15.442Z,97718.22
2019-05-29T06:05:48.058Z,97720.74
2019-05-29T06:08:17.454Z,97728.00
2019-05-29T06:10:50.615Z,97728.62
2019-05-29T06:13:19.687Z,97733.67
2019-05-29T06:15:48.941Z,97741.61
2019-05-29T06:18:21.483Z,97737.80
2019-05-29T06:20:51.740Z,97742.70
2019-05-29T06:23:22.132Z,97741.25
2019-05-29T06:25:52.541Z,97738.84
2019-05-29T06:28:21.835Z,97742.86
2019-05-29T06:30:52.513Z,97740.05
2019-05-29T06:33:25.112Z,97747.45
2019-05-29T06:35:57.506Z,97749.16
2019-05-29T06:38:26.873Z,97756.15
2019-05-29T06:40:58.540Z,97759.38
2019-05-29T06:43:28.921Z,97757.52
2019-05-29T06:45:58.440Z,97758.88
2019-05-29T06:48:42.451Z,97763.30
2019-05-29T06:51:05.366Z,97768.05
2019-05-29T06:53:37.613Z,97767.43
2019-05-29T06:56:07.292Z,97767.76
2019-05-29T06:58:38.097Z,97772.80
2019-05-29T07:01:08.558Z,97777.25
2019-05-29T07:03:41.484Z,97776.69
2019-05-29T07:06:11.297Z,97781.59
2019-05-29T07:08:45.104Z,97780.52
2019-05-29T07:11:12.802Z,97785.81
2019-05-29T07:13:45.238Z,97786.23
2019-05-29T07:16:15.833Z,97789.56
2019-05-29T07:19:20.437Z,97783.37
2019-05-29T07:21:17.553Z,97793.38
2019-05-29T07:23:48.796Z,97790.18
2019-05-29T07:26:17.483Z,97790.55
2019-05-29T07:29:06.354Z,97793.82
2019-05-29T07:31:20.851Z,97800.14
2019-05-29T07:33:50.140Z,97804.83
2019-05-29T07:36:20.608Z,97800.77
2019-05-29T07:39:01.798Z,97801.11
2019-05-29T07:41:22.471Z,97805.52
2019-05-29T07:43:53.429Z,97809.59
2019-05-29T07:46:22.753Z,97807.23
2019-05-29T07:48:53.230Z,97813.31
2019-05-29T07:51:23.667Z,97820.96
2019-05-29T07:53:55.410Z,97819.52
2019-05-29T07:56:26.149Z,97826.53
2019-05-29T07:59:02.506Z,97831.93
2019-05-29T08:01:31.039Z,97832.49
2019-05-29T08:04:00.446Z,97842.75
2019-05-29T08:06:31.362Z,97844.33
2019-05-29T08:09:00.688Z,97849.98
2019-05-29T08:11:33.668Z,97855.67
2019-05-29T08:14:02.997Z,97856.56
2019-05-29T08:16:33.481Z,97862.08
2019-05-29T08:19:07.877Z,97860.47
2019-05-29T08:21:35.018Z,97864.84
2019-05-29T08:24:05.429Z,97865.58
2019-05-29T08:26:36.434Z,97868.80
2019-05-29T08:29:06.158Z,97871.16
2019-05-29T08:31:35.584Z,97875.05
2019-05-29T08:34:08.916Z,97886.33
2019-05-29T08:36:39.320Z,97891.67
2019-05-29T08:39:09.852Z,97888.35
2019-05-29T08:41:39.084Z,97895.63
2019-05-29T08:44:09.148Z,97901.23
2019-05-29T08:46:39.693Z,97906.45
2019-05-29T08:49:09.050Z,97908.23
2019-05-29T08:51:39.362Z,97907.14
2019-05-29T08:54:23.604Z,97915.64
2019-05-29T08:56:42.266Z,97911.55
2019-05-29T08:59:12.872Z,97910.77
2019-05-29T09:01:42.852Z,97917.92
2019-05-29T09:04:13.473Z,97911.86
2019-05-29T09:06:44.702Z,97912.22
2019-05-29T09:09:15.344Z,97917.37
2019-05-29T09:11:47.381Z,97925.23
2019-05-29T09:14:18.652Z,97928.05
2019-05-29T09:16:50.766Z,97936.42
2019-05-29T09:19:22.767Z,97937.98
2019-05-29T09:21:54.777Z,97941.69
2019-05-29T09:24:25.071Z,97946.52
2019-05-29T09:26:54.428Z,97950.94
2019-05-29T09:29:26.718Z,97953.18
2019-05-29T09:31:57.768Z,97960.53
2019-05-29T09:34:28.163Z,97959.64
2019-05-29T09:36:57.527Z,97980.20
2019-05-29T09:39:26.916Z,97977.38
2019-05-29T09:41:59.592Z,97981.27
2019-05-29T09:44:38.415Z,97980.58
2019-05-29T09:47:00.116Z,97985.06
2019-05-29T09:49:29.554Z,97993.42
2019-05-29T09:51:58.049Z,97990.25
2019-05-29T09:54:27.525Z,97993.27
2019-05-29T09:56:58.271Z,98001.94
2019-05-29T09:59:29.076Z,97992.94
2019-05-29T10:02:02.159Z,97992.81
2019-05-29T10:04:30.533Z,97990.05
2019-05-29T10:06:59.985Z,97997.25
2019-05-29T10:09:31.226Z,97998.63
2019-05-29T10:12:04.945Z,98001.23
2019-05-29T10:14:33.411Z,97999.47
2019-05-29T10:17:11.083Z,98009.53
2019-05-29T10:19:35.143Z,98015.23
2019-05-29T10:22:05.704Z,98007.91
2019-05-29T10:24:36.582Z,98011.33
2019-05-29T10:27:06.837Z,98009.33
2019-05-29T10:29:37.293Z,98016.67
2019-05-29T10:32:06.125Z,98024.19
2019-05-29T10:34:36.540Z,98026.25
2019-05-29T10:37:06.045Z,98022.24
2019-05-29T10:39:36.773Z,98026.45
2019-05-29T10:42:08.057Z,98029.05
2019-05-29T10:44:38.464Z,98026.06
2019-05-29T10:47:07.773Z,98025.45
2019-05-29T10:49:37.345Z,98026.66
2019-05-29T10:52:15.647Z,98025.05
2019-05-29T10:54:44.095Z,98033.03
2019-05-29T10:57:14.882Z,98032.30
2019-05-29T10:59:44.638Z,98031.38
2019-05-29T11:02:14.064Z,98023.70
2019-05-29T11:04:47.606Z,98024.87
2019-05-29T11:07:14.623Z,98034.93
2019-05-29T11:09:45.111Z,98035.78
2019-05-29T11:12:16.932Z,98042.03
2019-05-29T11:14:46.540Z,98037.39
2019-05-29T11:17:16.920Z,98044.40
2019-05-29T11:19:47.718Z,98041.58
2019-05-29T11:22:26.371Z,98043.38
2019-05-29T11:24:50.306Z,98047.05
2019-05-29T11:27:19.682Z,98054.64
2019-05-29T11:29:50.532Z,98050.91
2019-05-29T11:32:20.089Z,98055.09
2019-05-29T11:34:52.339Z,98053.70
2019-05-29T11:37:21.795Z,98056.01
2019-05-29T11:39:52.442Z,98053.09
2019-05-29T11:42:27.176Z,98054.66
2019-05-29T11:44:55.306Z,98056.05
2019-05-29T11:47:25.706Z,98052.97
2019-05-29T11:49:55.238Z,98057.47
2019-05-29T11:52:26.566Z,98062.45
2019-05-29T11:54:57.987Z,98065.64
2019-05-29T11:57:31.203Z,98074.88
2019-05-29T12:00:09.769Z,98077.40
2019-05-29T12:02:33.599Z,98074.56
2019-05-29T12:05:03.963Z,98071.72
2019-05-29T12:07:34.423Z,98070.34
2019-05-29T12:10:05.331Z,98077.40
2019-05-29T12:12:35.987Z,98072.48
2019-05-29T12:15:13.484Z,98071.80
2019-05-29T12:17:38.701Z,98073.16
2019-05-29T12:20:26.450Z,98073.75
2019-05-29T12:23:07.298Z,98076.94
2019-05-29T12:25:14.752Z,98075.85
2019-05-29T12:27:46.237Z,98075.28
2019-05-29T12:30:30.081Z,98071.44
2019-05-29T12:33:01.165Z,98076.81
2019-05-29T12:35:30.621Z,98068.42
2019-05-29T12:38:03.527Z,98075.05
2019-05-29T12:40:35.499Z,98069.52
2019-05-29T12:43:05.962Z,98075.59
2019-05-29T12:45:36.545Z,98075.59
2019-05-29T12:48:12.896Z,98075.14
2019-05-29T12:50:39.170Z,98078.67
2019-05-29T12:53:09.785Z,98078.45
2019-05-29T12:55:42.066Z,98080.47
2019-05-29T12:58:11.464Z,98084.06
2019-05-29T13:00:41.775Z,98089.12
2019-05-29T13:03:11.451Z,98092.38
2019-05-29T13:05:41.807Z,98089.69
2019-05-29T13:08:12.229Z,98087.31
2019-05-29T13:10:44.182Z,98092.28
2019-05-29T13:13:13.672Z,98092.00
2019-05-29T13:15:43.022Z,98093.11
2019-05-29T13:18:12.529Z,98094.76
2019-05-29T13:20:42.880Z,98088.35
2019-05-29T13:23:13.892Z,98093.86
2019-05-29T13:25:45.842Z,98095.45
2019-05-29T13:28:16.302Z,98099.06
2019-05-29T13:30:45.590Z,98102.67
2019-05-29T13:33:16.998Z,98098.88
2019-05-29T13:35:49.491Z,98096.48
2019-05-29T13:38:19.959Z,98107.19
2019-05-29T13:40:50.873Z,98101.58
2019-05-29T13:43:20.298Z,98097.32
2019-05-29T13:45:49.025Z,98099.93
2019-05-29T13:48:18.395Z,98096.27
2019-05-29T13:50:50.518Z,98103.87
2019-05-29T13:53:20.876Z,98099.66
2019-05-29T13:55:50.238Z,98099.09
2019-05-29T13:58:21.114Z,98111.38
2019-05-29T14:00:51.668Z,98108.22
2019-05-29T14:03:21.983Z,98106.50
2019-05-29T14:05:51.343Z,98109.50
2019-05-29T14:08:22.266Z,98116.67
2019-05-29T14:10:51.002Z,98118.34
2019-05-29T14:13:20.519Z,98118.50
2019-05-29T14:15:50.872Z,98127.80
2019-05-29T14:18:20.248Z,98131.36
2019-05-29T14:20:49.636Z,98132.16
2019-05-29T14:23:19.990Z,98137.40
2019-05-29T14:25:49.397Z,98132.90
2019-05-29T14:28:19.042Z,98141.03
2019-05-29T14:30:48.293Z,98133.97
2019-05-29T14:33:19.889Z,98141.29
2019-05-29T14:35:51.810Z,98149.50
2019-05-29T14:38:21.177Z,98148.34
2019-05-29T14:40:51.576Z,98149.15
2019-05-29T14:43:22.086Z,98152.11
2019-05-29T14:45:52.387Z,98149.94
2019-05-29T14:48:24.882Z,98143.41
2019-05-29T14:50:54.271Z,98152.01
2019-05-29T14:53:23.541Z,98154.89
2019-05-29T14:55:55.371Z,98154.67
2019-05-29T14:58:27.661Z,98163.48
2019-05-29T15:00:58.517Z,98162.13
2019-05-29T15:03:27.850Z,98163.27
2019-05-29T15:05:58.261Z,98170.66
2019-05-29T15:08:28.543Z,98172.42
2019-05-29T15:10:58.952Z,98166.45
2019-05-29T15:13:30.095Z,98168.36
2019-05-29T15:16:00.920Z,98169.45
2019-05-29T15:18:33.101Z,98173.56
2019-05-29T15:21:04.878Z,98180.92
2019-05-29T15:23:36.825Z,98179.23
2019-05-29T15:26:07.505Z,98180.02
2019-05-29T15:28:38.056Z,98181.29
2019-05-29T15:31:08.235Z,98187.32
2019-05-29T15:33:40.654Z,98191.60
2019-05-29T15:36:10.951Z,98187.88
2019-05-29T15:38:40.199Z,98185.51
2019-05-29T15:41:11.242Z,98186.89
2019-05-29T15:43:41.965Z,98182.88
2019-05-29T15:46:12.177Z,98192.73
2019-05-29T15:48:43.657Z,98190.73
2019-05-29T15:51:15.124Z,98190.30
2019-05-29T15:53:44.475Z,98192.48
2019-05-29T15:56:25.901Z,98194.98
2019-05-29T15:58:48.818Z,98197.47
2019-05-29T16:01:18.141Z,98201.55
2019-05-29T16:03:48.538Z,98198.36
2019-05-29T16:06:18.941Z,98202.40
2019-05-29T16:08:51.131Z,98205.92
2019-05-29T16:11:25.336Z,98208.05
2019-05-29T16:13:52.598Z,98205.92
2019-05-29T16:16:23.070Z,98210.37
2019-05-29T16:18:53.584Z,98206.16
2019-05-29T16:21:25.892Z,98209.14
2019-05-29T16:24:00.240Z,98214.75
2019-05-29T16:26:30.647Z,98215.46
2019-05-29T16:29:00.969Z,98219.80
2019-05-29T16:31:31.458Z,98212.87
2019-05-29T16:34:03.011Z,98217.31
2019-05-29T16:36:35.300Z,98221.61
2019-05-29T16:39:08.003Z,98223.01
2019-05-29T16:41:37.321Z,98230.84
2019-05-29T16:44:07.986Z,98227.70
2019-05-29T16:46:38.407Z,98230.66
2019-05-29T16:49:12.432Z,98231.73
2019-05-29T16:51:43.058Z,98238.56
2019-05-29T16:54:14.625Z,98229.69
2019-05-29T16:56:46.036Z,98231.23
2019-05-29T16:59:17.622Z,98235.22
2019-05-29T17:01:47.086Z,98241.45
2019-05-29T17:04:17.662Z,98240.30
2019-05-29T17:06:48.103Z,98246.66
2019-05-29T17:09:18.312Z,98249.34
2019-05-29T17:11:48.703Z,98249.56
2019-05-29T17:14:20.834Z,98250.34
2019-05-29T17:16:50.603Z,98249.25
2019-05-29T17:19:25.182Z,98254.89
2019-05-29T17:21:55.150Z,98254.66
2019-05-29T17:24:27.523Z,98256.48
2019-05-29T17:26:59.694Z,98258.80
2019-05-29T17:29:29.837Z,98259.62
2019-05-29T17:32:01.904Z,98262.36
2019-05-29T17:34:33.039Z,98260.89
2019-05-29T17:37:03.418Z,98266.42
2019-05-29T17:39:32.814Z,98272.83
2019-05-29T17:42:02.173Z,98277.46
2019-05-29T17:44:31.603Z,98275.27
2019-05-29T17:47:02.045Z,98274.80
2019-05-29T17:49:34.860Z,98279.56
2019-05-29T17:52:05.352Z,98280.52
2019-05-29T17:54:34.791Z,98282.73
2019-05-29T17:57:04.314Z,98285.23
2019-05-29T17:59:33.773Z,98286.09
2019-05-29T18:02:04.143Z,98290.86
2019-05-29T18:04:34.743Z,98299.16
2019-05-29T18:07:04.437Z,98295.47
2019-05-29T18:09:35.142Z,98296.16
2019-05-29T18:12:05.662Z,98296.84
2019-05-29T18:14:34.694Z,98299.06
2019-05-29T18:17:06.982Z,98302.23
2019-05-29T18:19:39.066Z,98304.44
2019-05-29T18:22:07.540Z,98302.33
2019-05-29T18:24:38.244Z,98305.84
2019-05-29T18:27:08.908Z,98313.62
2019-05-29T18:29:38.319Z,98317.15
2019-05-29T18:32:08.854Z,98316.64
2019-05-29T18:34:39.314Z,98314.37
2019-05-29T18:37:08.607Z,98315.89
2019-05-29T18:39:39.379Z,98320.06
2019-05-29T18:42:11.290Z,98329.37
2019-05-29T18:44:43.545Z,98328.52
2019-05-29T18:47:12.321Z,98332.08
2019-05-29T18:49:42.628Z,98335.47
2019-05-29T18:52:13.190Z,98332.82
2019-05-29T18:54:43.582Z,98335.60
2019-05-29T18:57:16.253Z,98339.13
2019-05-29T18:59:46.797Z,98340.01
2019-05-29T19:02:16.098Z,98344.69
2019-05-29T19:04:48.759Z,98345.42
2019-05-29T19:07:18.135Z,98347.26
2019-05-29T19:09:48.807Z,98351.64
2019-05-29T19:12:19.502Z,98357.05
2019-05-29T19:14:51.569Z,98352.44
2019-05-29T19:17:22.018Z,98357.92
2019-05-29T19:19:52.453Z,98360.27
2019-05-29T19:22:22.850Z,98364.36
2019-05-29T19:24:52.472Z,98369.23
2019-05-29T19:27:36.960Z,98373.74
2019-05-29T19:29:54.320Z,98382.69
2019-05-29T19:32:25.241Z,98386.99
2019-05-29T19:34:55.503Z,98393.58
2019-05-29T19:37:26.138Z,98395.41
2019-05-29T19:39:58.028Z,98402.61
2019-05-29T19:42:30.154Z,98400.69
2019-05-29T19:44:59.851Z,98400.08
2019-05-29T19:47:30.638Z,98411.00
2019-05-29T19:49:59.649Z,98413.33
2019-05-29T19:52:29.220Z,98412.15
2019-05-29T19:55:00.146Z,98412.67
2019-05-29T19:57:46.544Z,98414.56
2019-05-29T20:00:03.218Z,98412.48
2019-05-29T20:02:32.891Z,98422.37
2019-05-29T20:05:04.173Z,98426.09
2019-05-29T20:07:33.829Z,98426.66
2019-05-29T20:10:06.197Z,98432.95
2019-05-29T20:12:38.322Z,98437.78
2019-05-29T20:15:08.853Z,98431.77
2019-05-29T20:17:39.277Z,98442.69
2019-05-29T20:20:10.418Z,98440.84
2019-05-29T20:22:39.269Z,98446.41
2019-05-29T20:25:13.860Z,98448.16
2019-05-29T20:27:46.414Z,98448.73
2019-05-29T20:30:19.468Z,98449.19
2019-05-29T20:32:50.779Z,98454.08
2019-05-29T20:35:23.834Z,98448.07
2019-05-29T20:37:58.932Z,98446.14
2019-05-29T20:40:30.992Z,98450.22
2019-05-29T20:43:03.193Z,98451.61
2019-05-29T20:45:36.103Z,98453.58
2019-05-29T20:48:06.518Z,98453.34
2019-05-29T20:50:39.051Z,98454.39
2019-05-29T20:53:10.094Z,98451.16
2019-05-29T20:55:42.219Z,98458.02
2019-05-29T20:58:24.412Z,98462.31
2019-05-29T21:00:50.234Z,98453.85
2019-05-29T21:03:22.764Z,98466.27
2019-05-29T21:05:53.348Z,98464.88
2019-05-29T21:08:24.073Z,98465.57
2019-05-29T21:10:56.353Z,98472.76
2019-05-29T21:13:25.708Z,98470.55
2019-05-29T21:15:55.115Z,98471.28
2019-05-29T21:18:25.694Z,98474.91
2019-05-29T21:20:55.062Z,98474.20
2019-05-29T21:23:26.086Z,98469.95
2019-05-29T21:25:58.268Z,98471.72
2019-05-29T21:28:39.771Z,98478.93
2019-05-29T21:31:00.646Z,98474.67
2019-05-29T21:33:31.152Z,98475.23
2019-05-29T21:36:04.346Z,98477.23
2019-05-29T21:38:36.091Z,98481.25
2019-05-29T21:41:06.750Z,98486.35
2019-05-29T21:43:39.245Z,98486.45
2019-05-29T21:46:09.737Z,98495.14
2019-05-29T21:48:39.056Z,98489.83
2019-05-29T21:51:12.243Z,98496.31
2019-05-29T21:53:41.714Z,98493.75
2019-05-29T21:56:11.214Z,98500.38
2019-05-29T21:58:57.252Z,98497.00
2019-05-29T22:01:12.086Z,98499.83
2019-05-29T22:03:42.385Z,98502.61
2019-05-29T22:06:12.795Z,98505.04
2019-05-29T22:08:44.986Z,98501.70
2019-05-29T22:11:16.678Z,98503.00
2019-05-29T22:13:46.153Z,98508.91
2019-05-29T22:16:16.826Z,98506.11
2019-05-29T22:18:47.219Z,98505.70
2019-05-29T22:21:17.789Z,98507.13
2019-05-29T22:23:47.232Z,98507.59
2019-05-29T22:26:17.516Z,98512.25
2019-05-29T22:28:47.903Z,98511.33
2019-05-29T22:31:19.876Z,98516.06
2019-05-29T22:33:51.417Z,98509.83
2019-05-29T22:36:21.940Z,98510.97
2019-05-29T22:38:53.409Z,98515.13
2019-05-29T22:41:24.375Z,98510.05
2019-05-29T22:43:53.837Z,98507.98
2019-05-29T22:46:24.291Z,98517.45
2019-05-29T22:48:56.000Z,98515.27
2019-05-29T22:51:27.297Z,98521.85
2019-05-29T22:53:57.919Z,98518.27
2019-05-29T22:56:28.427Z,98521.72
2019-05-29T22:59:00.265Z,98521.04
2019-05-29T23:01:29.764Z,98517.91
2019-05-29T23:04:00.264Z,98522.64
2019-05-29T23:06:32.967Z,98523.32
2019-05-29T23:09:03.268Z,98522.53
2019-05-29T23:11:32.774Z,98518.95
2019-05-29T23:14:03.035Z,98519.52
2019-05-29T23:16:33.649Z,98521.72
2019-05-29T23:19:04.587Z,98519.87
2019-05-29T23:21:33.979Z,98521.25
2019-05-29T23:24:05.293Z,98525.17
2019-05-29T23:26:34.790Z,98522.42
2019-05-29T23:29:04.256Z,98527.73
2019-05-29T23:31:33.587Z,98530.52
2019-05-29T23:34:04.056Z,98526.84
2019-05-29T23:36:34.768Z,98530.87
2019-05-29T23:39:07.404Z,98532.13
2019-05-29T23:41:39.479Z,98535.47
2019-05-29T23:44:08.849Z,98535.13
2019-05-29T23:46:39.247Z,98535.61
2019-05-29T23:49:09.717Z,98532.57
2019-05-29T23:51:40.077Z,98532.33
2019-05-29T23:54:10.384Z,98533.38
2019-05-29T23:56:40.764Z,98530.59
2019-05-29T23:59:10.063Z,98531.81
